Latest Weather Observations for Melbourne Airport

IDV60801

Issued at 3:31 pm EDT Monday 2 March 2015 (issued every 30 minutes, with the page automatically refreshed every 10 minutes)

About weather observations | Map of weather stations | Latest weather observations for VIC | Other Formats
Station Details ID: 086282 Name: MELBOURNE AIRPORT Lat: -37.67 Lon: 144.83 Height: 113.4 m
Data from the previous 72 hours. | See also: Recent months at Melbourne Airport
Date/Time
EDT
Temp
°C
App
Temp
°C
Dew
Point
Rel
Hum
%
Delta-T
°C
Wind Press
QNH
hPa
Press
MSL
hPa
Rain
since 9 am
mm
Dir
 
Spd
km/h
Gust
km/h
Spd
kts
Gust
kts
02/03:00pm 22.1 18.2 7.3 38 7.7 S 17 20 9 11 1015.0 1014.7 0.0
02/02:30pm 22.2 18.1 6.3 35 8.1 S 17 22 9 12 1015.6 1015.3 0.0
02/02:00pm 22.3 18.4 7.0 37 7.9 S 17 24 9 13 1015.5 1015.2 0.0
02/01:30pm 21.2 18.0 7.0 39 7.3 S 13 19 7 10 1015.7 1015.4 0.0
02/01:00pm 21.5 18.9 6.3 37 7.7 E 9 13 5 7 1016.2 1016.0 0.0
02/12:30pm 20.5 17.9 6.2 39 7.2 ENE 9 15 5 8 1016.6 1016.4 0.0
02/12:00pm 19.2 16.7 6.4 43 6.4 NNE 9 13 5 7 1017.1 1016.9 0.0
02/11:30am 17.9 16.0 6.7 48 5.6 N 6 11 3 6 1017.8 1017.6 0.0
02/11:00am 17.4 14.8 6.0 47 5.6 NE 9 15 5 8 1018.2 1017.9 0.0
02/10:30am 16.4 13.5 6.7 52 4.8 NE 11 20 6 11 1018.7 1018.4 0.0
02/10:00am 15.7 12.8 8.2 61 3.8 E 13 17 7 9 1018.9 1018.6 0.0
02/09:30am 15.0 13.3 8.3 64 3.4 NNE 7 11 4 6 1019.0 1018.7 0.0
02/08:30am 12.6 11.2 9.7 82 1.5 N 7 9 4 5 1018.9 1018.6 0.0
02/08:00am 10.8 9.3 9.0 89 0.9 N 7 9 4 5 1018.6 1018.3 0.0
02/07:30am 10.1 8.3 7.8 86 1.1 NNW 7 11 4 6 1018.6 1018.3 0.0
02/07:00am 9.1 8.5 7.4 89 0.8 CALM 0 0 0 0 1018.2 1017.9 0.0
02/06:30am 10.3 9.7 7.6 83 1.3 CALM 0 0 0 0 1018.4 1018.1 0.0
02/05:30am 10.4 8.6 7.9 84 1.2 NW 7 7 4 4 1017.9 1017.7 0.0
02/05:00am 10.7 8.7 8.7 87 1.0 NNW 9 11 5 6 1018.3 1018.0 0.0
02/04:30am 11.1 9.5 8.9 86 1.1 N 7 9 4 5 1018.4 1018.1 0.0
02/04:00am 10.7 10.0 8.7 87 1.0 N 2 6 1 3 1018.1 1017.8 0.0
02/03:30am 10.6 8.6 8.8 89 0.9 ENE 9 13 5 7 1018.5 1018.2 0.0
02/03:00am 10.2 8.1 8.1 87 1.0 WNW 9 11 5 6 1018.7 1018.4 0.0
02/02:30am 10.2 8.1 8.4 89 0.9 WSW 9 13 5 7 1018.6 1018.3 0.0
02/02:00am 10.8 8.4 8.6 86 1.1 WSW 11 13 6 7 1018.9 1018.6 0.0
02/01:30am 11.0 8.7 9.0 87 1.0 WSW 11 13 6 7 1018.9 1018.6 0.0
02/01:00am 11.9 10.0 8.9 82 1.5 SW 9 13 5 7 1018.6 1018.3 0.0
02/12:30am 11.9 9.6 8.9 82 1.5 SSW 11 13 6 7 1018.3 1018.0 0.0
 
Date/Time
EDT
Temp
°C
App
Temp
°C
Dew
Point
Rel
Hum
%
Delta-T
°C
Wind Press
QNH
hPa
Press
MSL
hPa
Rain
since 9 am
mm
Dir
 
Spd
km/h
Gust
km/h
Spd
kts
Gust
kts
01/11:30pm 13.2 9.9 9.5 78 1.9 SSW 17 22 9 12 1018.5 1018.2 0.0
01/11:00pm 13.5 10.7 10.0 79 1.8 SSW 15 19 8 10 1018.5 1018.2 0.0
01/10:30pm 14.1 11.0 10.3 78 2.0 SSW 17 22 9 12 1018.5 1018.2 0.0
01/10:00pm 15.0 11.9 10.2 73 2.5 SSW 17 22 9 12 1018.5 1018.2 0.0
01/09:30pm 15.1 12.4 10.4 73 2.5 SSW 15 20 8 11 1018.2 1017.9 0.0
01/09:00pm 15.5 12.8 10.4 71 2.7 S 15 24 8 13 1017.9 1017.7 0.0
01/08:30pm 16.1 12.1 10.5 69 3.0 S 22 30 12 16 1017.5 1017.3 0.0
01/08:00pm 16.7 11.8 10.1 65 3.5 SSE 26 32 14 17 1017.2 1017.0 0.0
01/07:30pm 17.0 11.8 10.2 64 3.6 S 28 33 15 18 1017.2 1017.0 0.0
01/07:00pm 17.7 12.4 9.8 60 4.2 S 28 35 15 19 1017.0 1016.8 0.0
01/06:30pm 17.5 11.9 10.2 62 3.9 S 30 37 16 20 1016.7 1016.5 0.0
01/05:30pm 18.7 12.7 10.1 57 4.6 S 32 39 17 21 1016.3 1016.1 0.0
01/05:00pm 18.9 12.7 9.5 54 5.0 S 32 39 17 21 1016.1 1015.8 0.0
01/04:30pm 19.0 12.7 9.1 52 5.2 S 32 39 17 21 1015.8 1015.5 0.0
01/04:00pm 19.3 13.2 8.3 49 5.7 S 30 37 16 20 1015.5 1015.2 0.0
01/03:30pm 19.6 13.3 9.7 52 5.3 S 33 44 18 24 1015.2 1014.9 0.0
01/03:00pm 19.8 14.6 10.2 54 5.2 S 28 35 15 19 1015.3 1015.0 0.0
01/02:30pm 20.2 14.3 10.5 53 5.3 S 32 41 17 22 1015.0 1014.7 0.0
01/02:00pm 20.0 13.9 10.4 54 5.2 SSE 33 43 18 23 1014.8 1014.5 0.0
01/01:30pm 19.3 13.7 10.0 55 5.0 SSE 30 37 16 20 1014.7 1014.4 0.0
01/01:00pm 20.3 14.6 9.7 50 5.7 S 30 39 16 21 1014.6 1014.3 0.0
01/12:30pm 19.6 14.6 11.0 57 4.7 S 28 33 15 18 1014.6 1014.3 0.0
01/12:00pm 19.1 14.7 11.7 62 4.1 SSW 26 35 14 19 1014.5 1014.2 0.0
01/11:30am 18.3 13.4 10.1 59 4.4 SSW 26 33 14 18 1014.0 1013.7 0.0
01/11:00am 18.8 14.4 10.5 58 4.5 SSW 24 32 13 17 1013.6 1013.3 0.0
01/10:30am 18.1 13.9 11.1 63 3.8 SSW 24 32 13 17 1013.3 1012.9 0.0
01/10:00am 17.7 13.9 12.3 70 3.0 SSW 24 35 13 19 1012.9 1012.5 0.0
01/09:30am 17.0 13.9 12.3 74 2.6 SW 20 26 11 14 1012.4 1012.0 0.0
01/09:00am 15.8 13.0 12.7 82 1.7 SW 19 26 10 14 1012.0 1011.6 16.4
01/08:30am 14.9 12.8 12.3 84 1.4 WSW 15 19 8 10 1011.6 1011.2 16.4
01/08:00am 14.1 11.9 12.1 88 1.1 W 15 17 8 9 1011.2 1010.8 16.4
01/07:30am 13.5 11.3 12.0 91 0.8 W 15 19 8 10 1010.6 1010.2 16.4
01/07:00am 13.1 11.3 12.2 94 0.5 WSW 13 15 7 8 1010.0 1009.6 16.4
01/06:30am 13.6 11.9 12.3 92 0.7 WSW 13 17 7 9 1009.6 1009.2 16.4
01/06:00am 14.0 11.9 12.5 91 0.8 WSW 15 19 8 10 1009.1 1008.8 16.4
01/05:30am 14.5 12.2 12.9 90 0.9 WSW 17 22 9 12 1008.6 1008.2 16.4
01/05:00am 14.9 12.3 13.3 90 0.9 WSW 19 26 10 14 1008.3 1007.9 16.4
01/04:30am 14.8 12.7 13.7 93 0.6 WSW 17 20 9 11 1007.7 1007.3 16.4
01/04:00am 14.7 11.6 13.5 92 0.7 SW 22 30 12 16 1007.5 1007.1 16.4
01/03:30am 14.8 10.1 14.3 97 0.3 SW 32 43 17 23 1007.2 1006.8 16.4
01/03:00am 16.1 13.9 15.9 99 0.1 SSW 22 28 12 15 1006.6 1006.2 15.6
01/02:30am 16.4 13.0 15.9 97 0.3 SSW 28 37 15 20 1006.5 1006.1 15.0
01/02:00am 18.0 16.7 16.8 93 0.7 WSW 19 28 10 15 1006.5 1006.1 14.4
01/01:30am 18.0 20.7 17.7 98 0.2 CALM 0 0 0 0 1006.2 1005.8 13.6
01/01:00am 18.4 21.1 17.8 96 0.4 CALM 0 0 0 0 1006.0 1005.6 13.0
01/12:30am 18.4 21.1 17.8 96 0.4 CALM 0 0 0 0 1006.0 1005.6 13.0
01/12:00am 18.3 19.8 17.6 96 0.4 NE 6 11 3 6 1005.6 1005.2 13.0
 
Date/Time
EDT
Temp
°C
App
Temp
°C
Dew
Point
Rel
Hum
%
Delta-T
°C
Wind Press
QNH
hPa
Press
MSL
hPa
Rain
since 9 am
mm
Dir
 
Spd
km/h
Gust
km/h
Spd
kts
Gust
kts
28/11:30pm 18.4 19.5 17.9 97 0.3 NNE 9 15 5 8 1006.0 1005.6 12.4
28/11:00pm 18.4 19.7 17.6 95 0.5 SE 7 9 4 5 1006.2 1005.8 11.6
28/10:30pm 18.5 19.9 17.7 95 0.5 N 7 11 4 6 1007.2 1006.8 9.4
28/10:00pm 18.4 19.0 17.6 95 0.5 W 11 17 6 9 1007.1 1006.7 7.0
28/09:30pm 18.7 17.8 17.7 94 0.6 SW 19 26 10 14 1005.9 1005.5 4.6
28/09:00pm 19.0 15.5 17.4 90 1.0 SW 32 48 17 26 1004.7 1004.3 3.6
28/08:54pm 18.9 13.3 17.4 91 0.9 WSW 43 61 23 33 1005.4 1005.0 3.4
28/08:43pm 19.2 11.1 17.4 89 1.1 WSW 56 74 30 40 1005.7 1005.3 3.0
28/08:32pm 19.4 8.3 18.4 94 0.6 WSW 74 122 40 66 1005.0 1004.6 2.4
28/08:30pm 19.5 7.0 18.7 95 0.5 WSW 82 122 44 66 1005.0 1004.6 2.2
28/08:26pm 19.5 7.3 18.4 93 0.7 W 80 122 43 66 1004.1 1003.7 1.8
28/08:21pm 20.8 14.7 18.4 86 1.5 NW 48 115 26 62 1002.5 1002.1 0.4
28/08:20pm 22.8 17.1 17.3 71 3.4 NNW 43 102 23 55 1002.2 1001.8 0.2
28/08:19pm 26.4 21.1 14.1 46 7.3 NNW 35 102 19 55 1001.6 1001.2 0.0
28/08:18pm 29.9 22.9 6.2 22 12.6 NNW 32 63 17 34 1001.6 1001.2 0.0
28/08:17pm 30.0 23.9 6.4 22 12.6 N 28 39 15 21 1001.0 1000.5 0.0
28/08:10pm 30.1 23.5 6.0 22 12.8 N 30 39 16 21 998.9 998.5 0.0
28/08:00pm 29.9 22.9 6.2 22 12.7 N 32 46 17 25 998.7 998.3 0.0
28/07:51pm 29.9 23.8 6.5 23 12.5 NNE 28 46 15 25 998.6 998.2 0.0
28/07:30pm 30.4 24.0 6.9 23 12.7 NNE 30 41 16 22 999.1 998.7 0.0
28/07:00pm 31.2 24.6 6.2 21 13.5 N 30 41 16 22 999.5 999.1 0.0
28/06:30pm 32.0 24.9 6.5 20 13.8 N 33 44 18 24 1000.2 999.8 0.0
28/06:00pm 31.4 25.1 5.9 20 13.7 N 28 41 15 22 1000.8 1000.3 0.0
28/05:30pm 32.3 24.8 6.1 19 14.1 N 35 50 19 27 1001.5 1001.0 0.0
28/05:25pm 32.5 25.4 6.2 19 14.2 N 33 50 18 27 1001.5 1001.0 0.0
28/05:00pm 32.0 26.5 7.4 21 13.6 NNW 26 39 14 21 1002.0 1001.6 0.0
28/04:30pm 30.9 25.5 8.0 24 12.6 NNW 26 33 14 18 1002.3 1001.9 0.0
28/04:00pm 30.8 23.4 8.4 24 12.5 N 37 50 20 27 1002.5 1002.1 0.0
28/03:30pm 29.8 22.1 8.6 26 11.8 N 39 56 21 30 1002.8 1002.4 0.0
28/03:22pm 29.9 22.6 8.8 26 11.7 NNE 37 56 20 30 1002.8 1002.4 0.0
28/03:00pm 29.4 22.4 8.5 27 11.6 NNE 35 44 19 24 1003.1 1002.7 0.0
28/02:30pm 27.0 20.6 8.6 31 10.1 N 32 39 17 21 1003.7 1003.3 0.0
28/02:00pm 26.7 20.3 8.4 31 10.0 NNE 32 43 17 23 1004.1 1003.7 0.0
28/01:30pm 26.5 20.1 10.8 37 8.9 N 35 43 19 23 1004.8 1004.4 0.0
28/01:00pm 26.1 19.4 11.0 38 8.6 N 37 48 20 26 1005.4 1005.0 0.0
28/12:30pm 24.4 17.4 10.0 40 8.0 N 37 48 20 26 1006.0 1005.6 0.0
28/12:00pm 24.0 16.9 9.4 39 8.0 N 37 54 20 29 1006.0 1005.6 0.0
28/11:56am 23.8 17.1 9.6 40 7.8 N 35 54 19 29 1006.1 1005.7 0.0
28/11:30am 22.8 16.3 11.7 49 6.3 N 37 48 20 26 1006.0 1005.6 0.0
28/11:00am 22.2 16.9 11.1 49 6.2 N 30 44 16 24 1006.2 1005.8 0.0
28/10:30am 21.9 17.6 12.2 54 5.5 NNE 26 33 14 18 1006.4 1006.0 0.0
28/10:00am 20.7 19.2 15.2 71 3.3 NNE 17 24 9 13 1006.8 1006.4 0.0
28/09:30am 21.1 17.5 12.9 59 4.7 NNW 24 30 13 16 1007.4 1007.0 0.0
28/09:00am 22.4 17.8 10.9 48 6.4 N 26 30 14 16 1006.9 1006.5 0.0
28/08:30am 21.6 18.1 11.0 51 5.9 N 20 26 11 14 1006.7 1006.3 0.0
28/08:00am 20.3 16.2 11.3 56 5.0 N 24 28 13 15 1006.4 1006.0 0.0
28/07:30am 19.5 15.9 12.0 62 4.2 N 22 28 12 15 1006.4 1006.0 0.0
28/07:00am 18.1 15.9 13.4 74 2.7 N 17 20 9 11 1006.6 1006.2 0.0
28/06:30am 17.0 16.3 14.2 83 1.6 NE 11 13 6 7 1006.6 1006.2 0.0
28/06:00am 17.0 18.3 14.2 83 1.6 CALM 0 0 0 0 1006.9 1006.5 0.0
28/05:30am 17.2 16.0 14.1 82 1.8 N 13 20 7 11 1006.8 1006.4 0.0
28/05:00am 17.0 17.2 14.2 83 1.6 SE 6 11 3 6 1006.3 1005.9 0.0
28/04:30am 16.9 16.2 14.3 85 1.5 NE 11 13 6 7 1007.2 1006.8 0.0
28/04:00am 16.9 16.9 14.3 85 1.5 NE 7 11 4 6 1007.7 1007.3 0.0
28/03:30am 16.8 16.8 14.2 85 1.5 NNW 7 9 4 5 1008.8 1008.5 0.0
28/03:00am 16.8 16.9 14.0 83 1.6 N 6 9 3 5 1008.5 1008.1 0.0
28/02:30am 16.8 16.9 14.0 83 1.6 WNW 6 7 3 4 1009.1 1008.8 0.0
28/02:00am 16.8 16.4 14.2 85 1.5 WNW 9 11 5 6 1009.8 1009.4 0.0
28/01:30am 16.7 16.3 14.1 85 1.5 W 9 9 5 5 1010.1 1009.7 0.0
28/01:00am 17.0 15.8 14.0 82 1.7 W 13 13 7 7 1010.6 1010.2 0.0
28/12:30am 17.2 16.8 14.1 82 1.8 W 9 11 5 6 1010.6 1010.2 0.0
28/12:00am 17.5 18.5 14.2 81 1.9 SW 2 7 1 4 1010.7 1010.3 0.0
 
Date/Time
EDT
Temp
°C
App
Temp
°C
Dew
Point
Rel
Hum
%
Delta-T
°C
Wind Press
QNH
hPa
Press
MSL
hPa
Rain
since 9 am
mm
Dir
 
Spd
km/h
Gust
km/h
Spd
kts
Gust
kts
27/11:30pm 17.8 17.5 14.5 81 1.9 S 9 11 5 6 1011.2 1010.8 0.0
27/11:00pm 18.0 16.9 14.4 79 2.1 S 13 15 7 8 1011.3 1010.9 0.0
27/10:30pm 17.9 17.2 14.3 79 2.1 SW 11 15 6 8 1011.5 1011.1 0.0
27/10:00pm 18.1 17.1 14.5 79 2.1 S 13 17 7 9 1011.1 1010.7 0.0
27/09:30pm 18.4 17.5 14.8 79 2.1 SSW 13 19 7 10 1011.1 1010.7 0.0
27/09:00pm 18.6 17.0 15.0 79 2.1 SSW 17 24 9 13 1010.9 1010.5 0.0
27/08:30pm 18.9 16.9 15.0 78 2.3 SSW 19 28 10 15 1010.6 1010.2 0.0
27/08:00pm 19.6 17.9 14.8 74 2.8 SSW 17 20 9 11 1009.9 1009.5 0.0
27/07:30pm 20.4 19.3 14.4 68 3.5 SSW 13 15 7 8 1009.6 1009.2 0.0
27/07:00pm 20.9 19.1 13.3 62 4.4 S 15 20 8 11 1009.1 1008.8 0.0
27/06:30pm 21.2 18.2 12.6 58 4.9 S 20 26 11 14 1009.1 1008.8 0.0
27/06:00pm 22.0 18.4 10.4 47 6.4 S 20 26 11 14 1009.3 1008.9 0.0
27/05:30pm 22.8 18.4 10.5 45 6.8 SSE 24 32 13 17 1009.0 1008.7 0.0
27/05:00pm 23.9 20.7 11.1 44 7.2 SE 19 28 10 15 1008.8 1008.5 0.0
27/04:30pm 24.8 21.6 11.4 43 7.6 SSE 19 26 10 14 1009.1 1008.8 0.0
27/04:00pm 24.4 22.0 11.3 43 7.4 SSE 15 33 8 18 1009.1 1008.8 0.0

Other Formats:

Comma delimited format used in spreadsheet applications
http://www.bom.gov.au/fwo/IDV60801/IDV60801.94866.axf

JavaScript Object Notation format (JSON) in row-major order
http://www.bom.gov.au/fwo/IDV60801/IDV60801.94866.json